sensor_id;sensor_type;location;lat;lon;timestamp;pressure;altitude;pressure_sealevel;temperature;humidity
69027;BME280;56080;47.594;19.116;2023-04-03T00:02:37;100136;;;9.26;60.72
69027;BME280;56080;47.594;19.116;2023-04-03T00:12:36;100134;;;9.00;60.48
69027;BME280;56080;47.594;19.116;2023-04-03T00:22:38;100141;;;8.86;60.09
69027;BME280;56080;47.594;19.116;2023-04-03T00:32:37;100141;;;8.80;60.55
69027;BME280;56080;47.594;19.116;2023-04-03T00:52:39;100153;;;8.87;60.55
69027;BME280;56080;47.594;19.116;2023-04-03T01:02:40;100162;;;8.83;59.69
69027;BME280;56080;47.594;19.116;2023-04-03T01:32:41;100160;;;8.60;59.28
69027;BME280;56080;47.594;19.116;2023-04-03T01:42:42;100165;;;8.69;59.10
69027;BME280;56080;47.594;19.116;2023-04-03T01:52:43;100164;;;8.74;59.24
69027;BME280;56080;47.594;19.116;2023-04-03T02:22:45;100180;;;8.47;56.99
69027;BME280;56080;47.594;19.116;2023-04-03T02:32:47;100184;;;8.38;56.89
69027;BME280;56080;47.594;19.116;2023-04-03T02:42:46;100183;;;8.25;58.59
69027;BME280;56080;47.594;19.116;2023-04-03T02:52:47;100186;;;8.18;58.34
69027;BME280;56080;47.594;19.116;2023-04-03T03:02:48;100191;;;7.86;59.28
69027;BME280;56080;47.594;19.116;2023-04-03T03:12:49;100187;;;7.89;59.26
69027;BME280;56080;47.594;19.116;2023-04-03T03:22:50;100187;;;7.87;58.97
69027;BME280;56080;47.594;19.116;2023-04-03T03:32:49;100201;;;7.80;58.80
69027;BME280;56080;47.594;19.116;2023-04-03T03:42:50;100206;;;7.65;58.93
69027;BME280;56080;47.594;19.116;2023-04-03T03:52:51;100201;;;7.55;58.92
69027;BME280;56080;47.594;19.116;2023-04-03T04:02:52;100201;;;7.12;60.16
69027;BME280;56080;47.594;19.116;2023-04-03T04:22:53;100204;;;6.98;61.13
69027;BME280;56080;47.594;19.116;2023-04-03T04:32:54;100216;;;6.94;61.26
69027;BME280;56080;47.594;19.116;2023-04-03T04:42:54;100229;;;6.74;61.79
69027;BME280;56080;47.594;19.116;2023-04-03T04:52:57;100233;;;6.83;61.74
69027;BME280;56080;47.594;19.116;2023-04-03T05:02:57;100236;;;6.86;60.88
69027;BME280;56080;47.594;19.116;2023-04-03T05:12:56;100235;;;6.80;60.74
69027;BME280;56080;47.594;19.116;2023-04-03T05:22:57;100242;;;7.13;59.34
69027;BME280;56080;47.594;19.116;2023-04-03T05:32:58;100255;;;7.17;58.82
69027;BME280;56080;47.594;19.116;2023-04-03T05:42:58;100251;;;7.22;58.12
69027;BME280;56080;47.594;19.116;2023-04-03T05:52:59;100260;;;7.44;57.38
69027;BME280;56080;47.594;19.116;2023-04-03T06:02:59;100261;;;7.55;56.74
69027;BME280;56080;47.594;19.116;2023-04-03T06:13:01;100264;;;7.79;56.73
69027;BME280;56080;47.594;19.116;2023-04-03T06:23:00;100278;;;7.92;56.25
69027;BME280;56080;47.594;19.116;2023-04-03T06:33:01;100282;;;8.37;55.52
69027;BME280;56080;47.594;19.116;2023-04-03T06:43:02;100273;;;8.44;54.14
69027;BME280;56080;47.594;19.116;2023-04-03T06:53:03;100280;;;8.71;53.97
69027;BME280;56080;47.594;19.116;2023-04-03T07:13:04;100299;;;8.49;51.44
69027;BME280;56080;47.594;19.116;2023-04-03T07:23:05;100301;;;8.39;50.68
69027;BME280;56080;47.594;19.116;2023-04-03T07:33:06;100313;;;8.38;50.65
69027;BME280;56080;47.594;19.116;2023-04-03T07:43:06;100320;;;8.79;50.10
69027;BME280;56080;47.594;19.116;2023-04-03T07:53:07;100319;;;8.71;49.86
69027;BME280;56080;47.594;19.116;2023-04-03T08:03:11;100320;;;9.01;49.12
69027;BME280;56080;47.594;19.116;2023-04-03T08:23:10;100323;;;9.19;48.21
69027;BME280;56080;47.594;19.116;2023-04-03T08:33:10;100324;;;9.87;46.90
69027;BME280;56080;47.594;19.116;2023-04-03T08:53:16;100324;;;13.25;38.77
69027;BME280;56080;47.594;19.116;2023-04-03T09:03:14;100316;;;12.43;39.09
69027;BME280;56080;47.594;19.116;2023-04-03T09:23:22;100320;;;11.47;41.75
69027;BME280;56080;47.594;19.116;2023-04-03T09:33:16;100321;;;10.79;42.76
69027;BME280;56080;47.594;19.116;2023-04-03T10:03:35;100318;;;10.60;41.65
69027;BME280;56080;47.594;19.116;2023-04-03T10:13:22;100325;;;11.23;41.81
69027;BME280;56080;47.594;19.116;2023-04-03T10:23:39;100318;;;11.29;41.62
69027;BME280;56080;47.594;19.116;2023-04-03T10:33:39;100326;;;10.43;42.72
69027;BME280;56080;47.594;19.116;2023-04-03T10:43:27;100327;;;10.86;42.46
69027;BME280;56080;47.594;19.116;2023-04-03T10:53:31;100319;;;10.55;41.81
69027;BME280;56080;47.594;19.116;2023-04-03T11:23:33;100315;;;10.77;41.11
69027;BME280;56080;47.594;19.116;2023-04-03T11:43:30;100288;;;10.79;40.78
69027;BME280;56080;47.594;19.116;2023-04-03T12:03:33;100281;;;10.50;40.72
69027;BME280;56080;47.594;19.116;2023-04-03T12:13:31;100284;;;10.38;41.19
69027;BME280;56080;47.594;19.116;2023-04-03T12:23:32;100277;;;10.40;41.60
69027;BME280;56080;47.594;19.116;2023-04-03T12:33:37;100284;;;10.62;40.53
69027;BME280;56080;47.594;19.116;2023-04-03T12:53:35;100266;;;10.53;41.28
69027;BME280;56080;47.594;19.116;2023-04-03T13:03:36;100259;;;10.97;39.58
69027;BME280;56080;47.594;19.116;2023-04-03T13:13:37;100249;;;10.93;39.72
69027;BME280;56080;47.594;19.116;2023-04-03T13:23:38;100239;;;10.82;39.67
69027;BME280;56080;47.594;19.116;2023-04-03T13:33:53;100232;;;11.10;39.13
69027;BME280;56080;47.594;19.116;2023-04-03T13:43:41;100226;;;11.00;39.17
69027;BME280;56080;47.594;19.116;2023-04-03T13:53:43;100226;;;11.19;37.77
69027;BME280;56080;47.594;19.116;2023-04-03T14:03:43;100215;;;11.11;38.13
69027;BME280;56080;47.594;19.116;2023-04-03T14:13:42;100198;;;11.29;37.95
69027;BME280;56080;47.594;19.116;2023-04-03T14:33:44;100192;;;11.47;38.05
69027;BME280;56080;47.594;19.116;2023-04-03T14:43:45;100193;;;11.65;38.72
69027;BME280;56080;47.594;19.116;2023-04-03T14:53:46;100192;;;11.41;38.43
69027;BME280;56080;47.594;19.116;2023-04-03T15:03:47;100203;;;11.19;39.98
69027;BME280;56080;47.594;19.116;2023-04-03T15:13:47;100213;;;11.08;41.08
69027;BME280;56080;47.594;19.116;2023-04-03T15:23:48;100202;;;10.55;42.22
69027;BME280;56080;47.594;19.116;2023-04-03T15:33:49;100200;;;10.37;42.39
69027;BME280;56080;47.594;19.116;2023-04-03T15:43:50;100215;;;10.36;43.17
69027;BME280;56080;47.594;19.116;2023-04-03T15:53:51;100218;;;9.48;40.09
69027;BME280;56080;47.594;19.116;2023-04-03T16:03:52;100227;;;8.88;41.11
69027;BME280;56080;47.594;19.116;2023-04-03T16:13:53;100229;;;8.99;41.54
69027;BME280;56080;47.594;19.116;2023-04-03T16:33:54;100239;;;8.43;42.52
69027;BME280;56080;47.594;19.116;2023-04-03T16:43:55;100255;;;8.65;41.07
69027;BME280;56080;47.594;19.116;2023-04-03T16:53:56;100275;;;8.59;40.75
69027;BME280;56080;47.594;19.116;2023-04-03T17:03:56;100313;;;8.14;41.22
69027;BME280;56080;47.594;19.116;2023-04-03T17:13:57;100340;;;8.04;42.25
69027;BME280;56080;47.594;19.116;2023-04-03T17:23:59;100361;;;7.65;42.99
69027;BME280;56080;47.594;19.116;2023-04-03T17:34:00;100381;;;7.72;42.48
69027;BME280;56080;47.594;19.116;2023-04-03T17:43:59;100399;;;7.41;41.69
69027;BME280;56080;47.594;19.116;2023-04-03T17:54:00;100424;;;7.15;41.55
69027;BME280;56080;47.594;19.116;2023-04-03T18:04:02;100446;;;7.12;42.23
69027;BME280;56080;47.594;19.116;2023-04-03T18:14:03;100487;;;7.36;41.67
69027;BME280;56080;47.594;19.116;2023-04-03T18:24:02;100508;;;6.79;42.13
69027;BME280;56080;47.594;19.116;2023-04-03T18:34:02;100513;;;6.72;42.09
69027;BME280;56080;47.594;19.116;2023-04-03T18:44:03;100536;;;6.94;41.09
69027;BME280;56080;47.594;19.116;2023-04-03T18:54:06;100537;;;6.64;39.55
69027;BME280;56080;47.594;19.116;2023-04-03T19:04:06;100545;;;6.41;38.08
69027;BME280;56080;47.594;19.116;2023-04-03T19:14:14;100536;;;6.08;37.96
69027;BME280;56080;47.594;19.116;2023-04-03T19:24:06;100550;;;6.21;37.57
69027;BME280;56080;47.594;19.116;2023-04-03T19:34:06;100545;;;5.81;38.29
69027;BME280;56080;47.594;19.116;2023-04-03T19:44:06;100547;;;5.56;38.82
69027;BME280;56080;47.594;19.116;2023-04-03T19:54:06;100558;;;5.22;39.89
69027;BME280;56080;47.594;19.116;2023-04-03T20:04:07;100530;;;5.52;39.57
69027;BME280;56080;47.594;19.116;2023-04-03T20:14:07;100535;;;5.34;39.61
69027;BME280;56080;47.594;19.116;2023-04-03T20:24:07;100534;;;5.23;39.99
69027;BME280;56080;47.594;19.116;2023-04-03T20:34:07;100518;;;5.29;40.16
69027;BME280;56080;47.594;19.116;2023-04-03T20:44:08;100514;;;5.00;39.60
69027;BME280;56080;47.594;19.116;2023-04-03T20:54:08;100516;;;5.30;38.37
69027;BME280;56080;47.594;19.116;2023-04-03T21:04:11;100500;;;5.04;38.33
69027;BME280;56080;47.594;19.116;2023-04-03T21:24:10;100511;;;5.21;39.31
69027;BME280;56080;47.594;19.116;2023-04-03T21:34:09;100498;;;4.97;39.59
69027;BME280;56080;47.594;19.116;2023-04-03T21:44:10;100501;;;4.90;39.53
69027;BME280;56080;47.594;19.116;2023-04-03T21:54:10;100489;;;4.86;39.64
69027;BME280;56080;47.594;19.116;2023-04-03T22:04:11;100475;;;4.75;39.90
69027;BME280;56080;47.594;19.116;2023-04-03T22:14:11;100471;;;4.58;40.16
69027;BME280;56080;47.594;19.116;2023-04-03T22:24:12;100470;;;4.52;40.36
69027;BME280;56080;47.594;19.116;2023-04-03T22:44:12;100470;;;4.05;41.69
69027;BME280;56080;47.594;19.116;2023-04-03T22:54:13;100468;;;4.05;41.02
69027;BME280;56080;47.594;19.116;2023-04-03T23:04:13;100480;;;3.68;41.87
69027;BME280;56080;47.594;19.116;2023-04-03T23:14:13;100473;;;3.69;42.29
69027;BME280;56080;47.594;19.116;2023-04-03T23:24:14;100474;;;3.75;42.58
69027;BME280;56080;47.594;19.116;2023-04-03T23:34:15;100473;;;3.72;42.94
69027;BME280;56080;47.594;19.116;2023-04-03T23:44:14;100466;;;3.47;44.31
69027;BME280;56080;47.594;19.116;2023-04-03T23:54:15;100473;;;3.56;44.73
